Lula, MS

2:31 PM CST on December 27, 2014 (GMT -0600)
Memphis International | Change Station
CLOSE
Current Station
Airport
Location: Memphis,
Elevation: 331 ft
Nearby Weather Stations

Elev 331 ft 35.06 °N, 89.99 °W | Updated 37 minutes ago

Thunderstorm
Thunderstorm
56 °F
Feels Like 56 °F
N
0
Wind Variable Wind from North

Today
High -- | Low -- °F
--% Chance of Precip.
Yesterday
High -- | Low -- °F
Precip. -- in
7:07 AM 4:59 PM
Waxing Crescent, 40% visible
Pressure 30.07 in
Visibility 3.0 miles
Clouds Overcast 500 ft
Dew Point 53 °F
Humidity 90%
Rainfall 0.18 in
Snow Depth Not available.
UV 1 out of 12
Pollen .10 out of 12
Air Quality Not available.
Flu Activity Not available.
METAR KMEM 271954Z 00000KT 3SM OVC005 13/12 A3007 RMK AO2 SFC VIS 8 RAE33 SLP182 P0009 T01330117

More Conditions Fewer Conditions

Pressure 30.07 in
Visibility 3.0 miles
Clouds Overcast 500 ft
Dew Point 53 °F
Humidity 90%
Rainfall 0.18 in
Snow Depth Not available.
UV 1 out of 12
Pollen .10 out of 12
Air Quality Not available.
Flu Activity Not available.
METAR KMEM 271954Z 00000KT 3SM OVC005 13/12 A3007 RMK AO2 SFC VIS 8 RAE33 SLP182 P0009 T01330117

More Conditions Fewer Conditions

10-Day Weather Forecast

Almanac

Astronomy

Dec. 27, 2014 Rise Set
Actual Time
Civil Twilight
Nautical Twilight
Astronomical Twilight
Moon
Length of Visible Light
Length of Day
Tomorrow will be .
, % of the Moon is Illuminated

Today's Extremes

State Highs State Lows

Community

WunderPhotos

Upload Photos

1,781,048 photos uploaded!

WunderBlogs® & News

Nearby

Air Quality

  Air Quality AQ Index Pollutant
Not available.

Snow Depth

Station Depth Elevation

Earthquake Activity

City Distance Mag. Time & Date
Minimum magnitude displayed is 2.5.

Coastal Water Temperatures

Place Temperature

Nearby Weather Stations